Latest Coastal Weather Observations for Aireys Inlet

IDV60701

Issued at 8:31 am EST Sunday 5 July 2015 (issued every 10 minutes, with the page automatically refreshed every 10 minutes)

About coastal observations | Map of coastal stations | Coastal observations for VIC | Marine services | Other Formats
Station Details ID: 090180 Name: AIREYS INLET Lat: -38.46 Lon: 144.09 Height: 95.0 m
Data from the previous 72 hours. | See also: Recent months at Aireys Inlet
Date/Time
EST
Temp

°C
Wind Pressure Rain
since 9am
mm
Weather Cloud Vis
km
Sea
Height
m
Swell
Dir
 
Speed
knots
Gust
knots
hPa Trend Height
m
Period
s
Dir
05/08:30am 9.7 NNW 6 10 - - 0.0 - - - - - - -
05/08:00am 9.4 NNW 7 14 - - 0.0 - - - - - - -
05/07:30am 9.6 NNW 7 15 - - 0.0 - - - - - - -
05/07:00am 9.5 NNW 9 16 - - 0.0 - - - - - - -
05/06:30am 9.6 NNW 9 15 - - 0.0 - - - - - - -
05/06:00am 9.6 NNW 10 17 - - 0.0 - - - - - - -
05/05:30am 9.8 NNW 9 15 - - 0.0 - - - - - - -
05/05:00am 9.8 NNW 6 10 - - 0.0 - - - - - - -
05/04:30am 10.0 NNW 9 17 - - 0.0 - - - - - - -
05/04:00am 10.4 NW 4 12 - - 0.0 - - - - - - -
05/03:30am 10.5 NNW 6 13 - - 0.0 - - - - - - -
05/03:00am 10.7 NNW 9 17 - - 0.0 - - - - - - -
05/02:30am 10.7 N 6 11 - - 0.0 - - - - - - -
05/02:00am 10.2 N 7 15 - - 0.0 - - - - - - -
05/01:30am 10.3 N 7 14 - - 0.0 - - - - - - -
05/01:00am 10.4 NNW 16 22 - - 0.0 - - - - - - -
05/12:30am 10.3 NNW 12 19 - - 0.0 - - - - - - -
05/12:00am 10.3 NW 9 17 - - 0.0 - - - - - - -
 
Date/Time
EST
Temp

°C
Wind Pressure Rain
since 9am
mm
Weather Cloud Vis
km
Sea
Height
m
Swell
Dir
 
Speed
knots
Gust
knots
hPa Trend Height
m
Period
s
Dir
04/11:30pm 10.2 NW 15 21 - - 0.0 - - - - - - -
04/11:00pm 10.2 NW 20 26 - - 0.0 - - - - - - -
04/10:30pm 10.2 NW 20 27 - - 0.0 - - - - - - -
04/10:00pm 10.3 NW 19 29 - - 0.0 - - - - - - -
04/09:30pm 10.5 NW 18 26 - - 0.0 - - - - - - -
04/09:00pm 10.5 NW 12 18 - - 0.0 - - - - - - -
04/08:30pm 10.5 NW 13 20 - - 0.0 - - - - - - -
04/08:00pm 10.5 NW 14 20 - - 0.0 - - - - - - -
04/07:30pm 10.5 NW 12 17 - - 0.0 - - - - - - -
04/07:00pm 10.5 NW 10 18 - - 0.0 - - - - - - -
04/06:30pm 10.8 NW 10 17 - - 0.0 - - - - - - -
04/06:00pm 10.9 WNW 13 20 - - 0.0 - - - - - - -
04/05:30pm 11.2 NW 9 16 - - 0.0 - - - - - - -
04/05:00pm 11.4 NW 14 23 - - 0.0 - - - - - - -
04/04:30pm 11.6 WNW 9 17 - - 0.0 - - - - - - -
04/04:00pm 11.5 NW 8 13 - - 0.0 - - - - - - -
04/03:30pm 11.4 NW 13 19 - - 0.0 - - - - - - -
04/03:00pm 11.1 WNW 4 10 - - 0.0 - - - - - - -
04/02:30pm 10.9 NW 10 17 - - 0.0 - - - - - - -
04/02:00pm 10.5 NW 14 23 - - 0.0 - - - - - - -
04/01:30pm 10.3 NW 16 22 - - 0.0 - - - - - - -
04/01:00pm 9.7 NW 12 22 - - 0.0 - - - - - - -
04/12:30pm 9.4 NW 16 26 - - 0.0 - - - - - - -
04/12:09pm 9.4 NW 16 26 - - 0.0 - - - - - - -
04/12:00pm 9.3 NW 17 27 - - 0.0 - - - - - - -
04/11:30am 9.1 NW 19 33 - - 0.0 - - - - - - -
04/11:07am 9.1 NW 18 29 - - 0.0 - - - - - - -
04/11:00am 9.0 NW 18 25 - - 0.0 - - - - - - -
04/10:30am 8.6 NW 19 31 - - 0.0 - - - - - - -
04/10:00am 8.3 NW 20 32 - - 0.0 - - - - - - -
04/09:30am 8.1 NW 17 28 - - 0.0 - - - - - - -
04/09:26am 8.1 NW 17 28 - - 0.0 - - - - - - -
04/09:00am 7.8 NW 19 28 - - 0.0 - - - - - - -
04/08:30am 7.7 NW 18 31 - - 0.0 - - - - - - -
04/08:24am 7.6 NW 17 29 - - 0.0 - - - - - - -
04/08:15am 7.5 NNW 15 24 - - 0.0 - - - - - - -
04/08:00am 7.5 WNW 7 19 - - 0.0 - - - - - - -
04/07:30am 7.7 NW 19 29 - - 0.0 - - - - - - -
04/07:16am 7.5 NNW 10 26 - - 0.0 - - - - - - -
04/07:00am 7.8 N 5 15 - - 0.0 - - - - - - -
04/06:30am 8.0 NW 14 20 - - 0.0 - - - - - - -
04/06:02am 7.9 NW 15 25 - - 0.0 - - - - - - -
04/06:00am 7.8 NW 14 26 - - 0.0 - - - - - - -
04/05:30am 8.1 NW 18 27 - - 0.0 - - - - - - -
04/05:14am 7.9 NW 18 29 - - 0.0 - - - - - - -
04/05:00am 7.9 NW 18 26 - - 0.0 - - - - - - -
04/04:32am 7.8 NW 15 25 - - 0.0 - - - - - - -
04/04:30am 7.8 NW 16 26 - - 0.0 - - - - - - -
04/04:18am 7.8 NW 19 30 - - 0.0 - - - - - - -
04/04:00am 7.7 NW 17 26 - - 0.0 - - - - - - -
04/03:33am 8.0 NW 19 30 - - 0.0 - - - - - - -
04/03:30am 8.1 NW 20 30 - - 0.0 - - - - - - -
04/03:00am 8.1 NW 21 36 - - 0.0 - - - - - - -
04/02:30am 8.5 NW 20 32 - - 0.0 - - - - - - -
04/02:07am 8.3 NW 17 29 - - 0.0 - - - - - - -
04/02:00am 8.3 NW 17 25 - - 0.0 - - - - - - -
04/01:36am 8.2 NNW 16 26 - - 0.0 - - - - - - -
04/01:30am 8.1 NW 16 25 - - 0.0 - - - - - - -
04/01:00am 7.8 NW 18 25 - - 0.0 - - - - - - -
04/12:42am 7.9 NW 16 26 - - 0.0 - - - - - - -
04/12:30am 7.8 NW 15 23 - - 0.0 - - - - - - -
04/12:27am 7.7 NW 15 25 - - 0.0 - - - - - - -
04/12:00am 7.5 NW 15 22 - - 0.0 - - - - - - -
 
Date/Time
EST
Temp

°C
Wind Pressure Rain
since 9am
mm
Weather Cloud Vis
km
Sea
Height
m
Swell
Dir
 
Speed
knots
Gust
knots
hPa Trend Height
m
Period
s
Dir
03/11:30pm 7.0 NW 13 18 - - 0.0 - - - - - - -
03/11:00pm 6.8 NNW 9 15 - - 0.0 - - - - - - -
03/10:30pm 6.6 N 9 14 - - 0.0 - - - - - - -
03/10:00pm 6.7 NNW 12 16 - - 0.0 - - - - - - -
03/09:30pm 7.2 N 6 9 - - 0.0 - - - - - - -
03/09:00pm 7.0 NNW 6 7 - - 0.0 - - - - - - -
03/08:30pm 7.4 NNW 7 10 - - 0.0 - - - - - - -
03/08:00pm 7.3 NW 8 10 - - 0.0 - - - - - - -
03/07:30pm 7.3 NNW 7 10 - - 0.0 - - - - - - -
03/07:00pm 7.3 NW 8 11 - - 0.0 - - - - - - -
03/06:30pm 7.3 NNW 8 11 - - 0.0 - - - - - - -
03/06:00pm 7.4 NW 7 9 - - 0.0 - - - - - - -
03/05:30pm 7.5 NW 6 8 - - 0.0 - - - - - - -
03/05:00pm 8.0 NW 4 6 - - 0.0 - - - - - - -
03/04:30pm 8.6 NNW 3 5 - - 0.0 - - - - - - -
03/04:00pm 9.1 NW 5 8 - - 0.0 - - - - - - -
03/03:30pm 9.2 NW 6 11 - - 0.0 - - - - - - -
03/03:00pm 9.5 WNW 6 9 - - 0.0 - - - - - - -
03/02:30pm 9.1 WNW 5 7 - - 0.0 - - - - - - -
03/02:00pm 9.1 WNW 11 18 - - 0.0 - - - - - - -
03/01:30pm 10.6 WNW 9 17 - - 0.0 - - - - - - -
03/01:00pm 10.2 WNW 12 19 - - 0.0 - - - - - - -
03/12:30pm 10.3 WNW 12 18 - - 0.0 - - - - - - -
03/12:00pm 10.1 WNW 10 17 - - 0.0 - - - - - - -
03/11:30am 10.4 NW 9 16 - - 0.0 - - - - - - -
03/11:00am 9.8 WNW 8 16 - - 0.0 - - - - - - -
03/10:30am 9.3 NW 7 11 - - 0.0 - - - - - - -
03/10:00am 8.5 NW 11 16 - - 0.0 - - - - - - -
03/09:30am 7.9 NW 7 10 - - 0.0 - - - - - - -
03/09:00am 7.3 NW 9 13 - - 1.2 - - - - - - -
03/08:30am 6.7 NW 10 13 - - 1.2 - - - - - - -
03/08:00am 6.8 NW 10 13 - - 1.2 - - - - - - -
03/07:30am 7.2 WNW 8 13 - - 1.2 - - - - - - -
03/07:00am 6.9 NW 7 9 - - 1.2 - - - - - - -
03/06:30am 7.0 NW 7 8 - - 1.2 - - - - - - -
03/06:00am 7.0 NW 8 10 - - 1.2 - - - - - - -
03/05:30am 8.0 WNW 7 10 - - 1.2 - - - - - - -
03/05:00am 8.0 WNW 6 8 - - 1.2 - - - - - - -
03/04:30am 8.0 W 7 11 - - 1.2 - - - - - - -
03/04:00am 7.8 WNW 7 9 - - 1.2 - - - - - - -
03/03:30am 8.0 W 6 8 - - 1.2 - - - - - - -
03/03:00am 8.0 W 7 10 - - 1.2 - - - - - - -
03/02:30am 8.2 WSW 8 12 - - 1.2 - - - - - - -
03/02:00am 7.8 WSW 8 12 - - 1.2 - - - - - - -
03/01:30am 7.3 W 8 10 - - 1.2 - - - - - - -
03/01:00am 7.1 W 8 11 - - 1.2 - - - - - - -
03/12:30am 7.0 W 7 9 - - 1.2 - - - - - - -
03/12:00am 7.1 WNW 6 8 - - 1.2 - - - - - - -
 
Date/Time
EST
Temp

°C
Wind Pressure Rain
since 9am
mm
Weather Cloud Vis
km
Sea
Height
m
Swell
Dir
 
Speed
knots
Gust
knots
hPa Trend Height
m
Period
s
Dir
02/11:30pm 7.4 W 7 9 - - 1.2 - - - - - - -
02/11:00pm 7.8 WSW 10 14 - - 1.2 - - - - - - -
02/10:30pm 7.3 W 11 15 - - 1.2 - - - - - - -
02/10:00pm 7.4 WSW 9 15 - - 1.2 - - - - - - -
02/09:30pm 7.2 W 9 12 - - 1.2 - - - - - - -
02/09:00pm 7.4 W 11 16 - - 1.2 - - - - - - -
02/08:30pm 7.2 W 8 11 - - 1.2 - - - - - - -
02/08:00pm 7.1 WNW 9 11 - - 1.2 - - - - - - -
02/07:30pm 7.1 W 10 13 - - 1.2 - - - - - - -
02/07:00pm 7.8 W 7 12 - - 0.8 - - - - - - -
02/06:30pm 8.2 WSW 11 15 - - 0.8 - - - - - - -
02/06:00pm 7.6 W 7 10 - - 0.8 - - - - - - -
02/05:30pm 7.9 WSW 10 16 - - 0.8 - - - - - - -
02/05:00pm 7.8 WNW 6 9 - - 0.8 - - - - - - -
02/04:30pm 7.9 WSW 12 17 - - 0.8 - - - - - - -
02/04:16pm 8.6 WSW 15 27 - - 0.6 - - - - - - -
02/04:00pm 8.9 WSW 13 18 - - 0.6 - - - - - - -
02/03:30pm 9.7 SW 17 26 - - 0.6 - - - - - - -
02/03:09pm 10.5 SW 15 30 - - 0.6 - - - - - - -
02/03:00pm 11.0 SW 14 19 - - 0.6 - - - - - - -
02/02:30pm 10.8 WSW 14 21 - - 0.6 - - - - - - -
02/02:00pm 10.5 SW 15 21 - - 0.6 - - - - - - -
02/01:30pm 9.8 WSW 12 21 - - 0.6 - - - - - - -
02/01:00pm 9.5 WSW 11 19 - - 0.6 - - - - - - -
02/12:30pm 7.2 SW 22 33 - - 0.6 - - - - - - -
02/12:21pm 9.1 SW 16 29 - - 0.4 - - - - - - -
02/12:00pm 8.0 WSW 16 25 - - 0.4 Recent precip. - - - - - -
02/11:34am 9.6 WSW 18 30 - - 0.2 - - - - - - -
02/11:30am 9.5 WSW 17 23 - - 0.2 - - - - - - -
02/11:00am 8.1 WSW 16 23 - - 0.2 - - - - - - -
02/10:32am 7.1 WSW 21 32 - - 0.2 - - - - - - -
02/10:30am 7.1 WSW 22 32 - - 0.2 - - - - - - -
02/10:09am 8.7 WSW 21 33 - - 0.0 - - - - - - -
02/10:00am 8.9 WSW 21 30 - - 0.0 - - - - - - -
02/09:36am 8.0 WSW 17 28 - - 0.0 - - - - - - -
02/09:30am 7.5 WSW 14 21 - - 0.0 - - - - - - -
02/09:00am 6.9 WSW 18 34 - - 1.8 Rain - - - - - -
02/08:53am 6.9 SW 15 34 - - 1.6 - - - - - - -

Other Formats:

Comma delimited format used in spreadsheet applications
http://www.bom.gov.au/fwo/IDV60701/IDV60701.94846.axf

JavaScript Object Notation format (JSON) in row-major order
http://www.bom.gov.au/fwo/IDV60701/IDV60701.94846.json